Time;durP1;ratioP1;P1;durP2;ratioP2;P2;SDS_P1;SDS_P2;PMS_P1;PMS_P2;Temp;Humidity;BMP_temperature;BMP_pressure;BME280_temperature;BME280_humidity;BME280_pressure;Samples;Min_cycle;Max_cycle;Signal;HPM_P1;HPM_P2
2024/01/31 00:01:37;;;;;;;8.70;1.10;;;;;;;4.60;100.00;103222.59;5027036;28;20045;-76
2024/01/31 00:04:05;;;;;;;7.72;1.40;;;;;;;4.60;100.00;103226.94;5040661;28;20041;-76
2024/01/31 00:06:32;;;;;;;6.05;1.58;;;;;;;4.61;100.00;103234.88;5026230;28;20056;-76
2024/01/31 00:09:00;;;;;;;9.32;1.70;;;;;;;4.62;100.00;103230.53;5013883;28;20078;-76
2024/01/31 00:11:31;;;;;;;7.30;2.03;;;;;;;4.63;100.00;103234.94;5026522;28;20052;-76
2024/01/31 00:13:58;;;;;;;7.13;1.48;;;;;;;4.62;100.00;103239.28;5002067;28;20036;-77
2024/01/31 00:16:25;;;;;;;4.80;1.42;;;;;;;4.63;100.00;103243.72;5024439;28;20425;-76
2024/01/31 00:18:54;;;;;;;7.72;1.98;;;;;;;4.63;100.00;103241.09;5028236;28;20067;-76
2024/01/31 00:21:21;;;;;;;8.60;1.55;;;;;;;4.66;100.00;103248.22;5012480;28;20053;-76
2024/01/31 00:23:51;;;;;;;5.07;1.13;;;;;;;4.64;100.00;103245.50;5038869;28;20394;-76
2024/01/31 00:26:19;;;;;;;12.55;1.85;;;;;;;4.65;100.00;103260.38;5019957;28;20048;-76
2024/01/31 00:28:46;;;;;;;5.00;1.33;;;;;;;4.66;100.00;103259.56;5014579;28;20426;-77
2024/01/31 00:31:14;;;;;;;5.40;1.25;;;;;;;4.68;100.00;103267.50;5005564;28;20453;-76
2024/01/31 00:33:41;;;;;;;5.63;1.45;;;;;;;4.69;100.00;103278.06;5047336;28;20057;-76
2024/01/31 00:36:08;;;;;;;9.93;1.60;;;;;;;4.70;100.00;103273.72;5010493;28;20060;-76
2024/01/31 00:38:36;;;;;;;9.40;1.60;;;;;;;4.70;100.00;103281.56;5047139;28;20387;-76
2024/01/31 00:41:04;;;;;;;4.72;1.17;;;;;;;4.72;100.00;103271.22;5017516;28;20052;-76
2024/01/31 00:43:32;;;;;;;6.35;1.20;;;;;;;4.73;100.00;103273.94;5042278;28;20041;-76
2024/01/31 00:46:03;;;;;;;6.68;1.20;;;;;;;4.74;100.00;103269.63;4986286;28;20041;-76
2024/01/31 00:48:32;;;;;;;5.63;1.65;;;;;;;4.75;100.00;103274.94;5028636;28;20052;-76
2024/01/31 00:51:00;;;;;;;5.60;1.40;;;;;;;4.75;100.00;103269.72;5043633;28;20041;-76
2024/01/31 00:53:27;;;;;;;10.18;1.70;;;;;;;4.76;100.00;103274.13;5029157;28;20049;-76
2024/01/31 00:55:54;;;;;;;5.40;1.30;;;;;;;4.78;100.00;103271.63;5002403;28;20041;-76
2024/01/31 00:58:22;;;;;;;9.57;2.75;;;;;;;4.79;100.00;103269.13;5028618;28;20049;-76
2024/01/31 01:00:49;;;;;;;8.63;1.60;;;;;;;4.78;100.00;103275.16;4986015;28;20081;-76
2024/01/31 01:03:17;;;;;;;6.82;2.00;;;;;;;4.77;100.00;103270.72;5027641;28;20068;-76
2024/01/31 01:05:44;;;;;;;4.95;1.45;;;;;;;4.77;100.00;103264.59;5045796;28;20037;-76
2024/01/31 01:08:11;;;;;;;6.93;1.50;;;;;;;4.77;100.00;103267.22;5023711;28;20491;-76
2024/01/31 01:10:39;;;;;;;7.13;2.03;;;;;;;4.80;100.00;103272.63;5044943;28;20040;-76
2024/01/31 01:13:07;;;;;;;3.90;1.45;;;;;;;4.80;100.00;103265.72;5018213;28;20076;-76
2024/01/31 01:15:34;;;;;;;10.07;1.77;;;;;;;4.81;100.00;103271.84;4985655;28;20410;-76
2024/01/31 01:18:02;;;;;;;7.88;1.83;;;;;;;4.83;100.00;103280.66;5034135;28;20055;-76
2024/01/31 01:20:29;;;;;;;8.75;1.70;;;;;;;4.83;100.00;103284.19;5012056;28;20501;-76
2024/01/31 01:22:56;;;;;;;6.18;1.75;;;;;;;4.85;100.00;103284.28;5035976;28;20049;-76
2024/01/31 01:25:25;;;;;;;9.27;2.00;;;;;;;4.84;100.00;103274.66;5026520;28;20045;-76
2024/01/31 01:27:53;;;;;;;8.27;1.45;;;;;;;4.83;100.00;103280.66;5017584;28;20041;-76
2024/01/31 01:30:21;;;;;;;5.90;1.77;;;;;;;4.81;100.00;103283.19;5027920;28;20659;-76
2024/01/31 01:32:48;;;;;;;8.77;1.75;;;;;;;4.79;100.00;103282.19;4985971;28;20493;-76
2024/01/31 01:35:16;;;;;;;7.78;1.67;;;;;;;4.79;100.00;103292.63;5011035;28;20045;-76
2024/01/31 01:37:43;;;;;;;13.02;2.17;;;;;;;4.78;100.00;103292.53;5045842;28;20045;-76
2024/01/31 01:40:11;;;;;;;17.17;2.33;;;;;;;4.76;100.00;103281.06;5025467;28;20843;-76
2024/01/31 01:42:39;;;;;;;4.45;1.40;;;;;;;4.74;100.00;103280.97;5020405;28;20053;-76
2024/01/31 01:45:07;;;;;;;9.57;1.33;;;;;;;4.72;100.00;103289.50;5043681;28;20052;-76
2024/01/31 01:47:36;;;;;;;5.07;1.50;;;;;;;4.71;100.00;103300.75;5006864;28;20044;-76
2024/01/31 01:50:04;;;;;;;5.25;1.70;;;;;;;4.72;100.00;103297.34;5042341;28;20057;-76
2024/01/31 01:52:32;;;;;;;9.32;2.13;;;;;;;4.73;100.00;103289.63;5029908;28;20044;-76
2024/01/31 01:55:03;;;;;;;10.27;1.38;;;;;;;4.75;100.00;103292.34;5026611;28;20045;-76
2024/01/31 01:57:32;;;;;;;;;;;;;;;4.73;100.00;103299.16;5018202;28;20476;-76
2024/01/31 02:00:00;;;;;;;5.28;1.67;;;;;;;4.72;100.00;103290.41;5029715;28;19920;-76
2024/01/31 02:02:28;;;;;;;6.40;2.45;;;;;;;4.72;100.00;103290.41;4983251;28;20057;-76
2024/01/31 02:04:55;;;;;;;5.57;1.20;;;;;;;4.72;100.00;103289.50;5011029;28;20718;-76
2024/01/31 02:07:26;;;;;;;3.45;1.30;;;;;;;4.71;100.00;103283.38;5042676;28;20029;-76
2024/01/31 02:09:55;;;;;;;8.85;1.85;;;;;;;4.69;100.00;103278.06;5019210;28;20056;-76
2024/01/31 02:12:22;;;;;;;6.03;1.27;;;;;;;4.67;100.00;103278.78;5033257;28;20056;-76
2024/01/31 02:14:52;;;;;;;7.65;1.35;;;;;;;4.62;100.00;103285.38;5027459;28;20532;-76
2024/01/31 02:17:19;;;;;;;5.97;1.33;;;;;;;4.56;100.00;103271.94;4988100;28;20041;-76
2024/01/31 02:19:47;;;;;;;9.07;1.80;;;;;;;4.49;100.00;103284.56;5056733;28;20050;-76
2024/01/31 02:22:19;;;;;;;7.50;2.10;;;;;;;4.43;100.00;103273.72;5024521;28;20053;-76
2024/01/31 02:24:47;;;;;;;8.93;1.92;;;;;;;4.38;100.00;103280.31;5022561;28;20410;-76
2024/01/31 02:27:14;;;;;;;4.32;1.35;;;;;;;4.35;100.00;103284.41;5025193;28;20520;-76
2024/01/31 02:29:42;;;;;;;6.63;1.42;;;;;;;4.32;100.00;103274.69;5017889;28;20448;-76
2024/01/31 02:32:09;;;;;;;5.30;1.70;;;;;;;4.30;100.00;103276.28;5026396;28;20052;-76
2024/01/31 02:34:36;;;;;;;7.40;1.50;;;;;;;4.29;100.00;103279.69;4985444;28;20049;-76
2024/01/31 02:37:04;;;;;;;7.13;1.50;;;;;;;4.27;100.00;103282.22;5010329;28;20490;-76
2024/01/31 02:39:33;;;;;;;7.25;1.58;;;;;;;4.26;100.00;103283.00;5031620;28;20059;-76
2024/01/31 02:42:00;;;;;;;4.68;1.20;;;;;;;4.24;100.00;103284.63;5042986;28;20462;-77
2024/01/31 02:44:28;;;;;;;8.20;1.10;;;;;;;4.22;100.00;103282.72;5002539;28;20100;-76
2024/01/31 02:46:55;;;;;;;4.95;1.75;;;;;;;4.20;100.00;103282.59;5026941;28;20045;-76
2024/01/31 02:49:23;;;;;;;12.35;3.15;;;;;;;4.20;100.00;103280.00;5003362;28;20041;-76
2024/01/31 02:51:52;;;;;;;7.28;1.20;;;;;;;4.18;100.00;103276.38;5030710;28;20519;-75
2024/01/31 02:54:20;;;;;;;3.47;1.25;;;;;;;4.16;100.00;103270.16;5023664;28;20348;-76
2024/01/31 02:56:47;;;;;;;5.50;1.10;;;;;;;4.16;100.00;103271.81;5027738;28;20045;-76
2024/01/31 02:59:14;;;;;;;6.75;1.67;;;;;;;4.12;100.00;103265.53;5032733;28;20045;-76
2024/01/31 03:01:45;;;;;;;6.15;1.45;;;;;;;4.07;100.00;103266.91;5026682;28;20406;-76
2024/01/31 03:04:13;;;;;;;4.82;1.50;;;;;;;4.06;100.00;103278.13;5013526;28;20056;-76
2024/01/31 03:06:41;;;;;;;7.32;1.58;;;;;;;4.02;100.00;103276.13;4985217;28;20040;-76
2024/01/31 03:09:09;;;;;;;7.28;1.30;;;;;;;3.99;100.00;103268.06;5015092;28;20053;-76
2024/01/31 03:11:36;;;;;;;3.85;1.15;;;;;;;3.96;100.00;103268.78;5044913;28;20103;-76
2024/01/31 03:14:04;;;;;;;5.45;1.40;;;;;;;3.94;100.00;103264.25;5042130;28;20401;-76
2024/01/31 03:16:31;;;;;;;8.10;1.13;;;;;;;3.91;100.00;103257.09;5006371;28;20075;-76
2024/01/31 03:18:59;;;;;;;4.82;1.23;;;;;;;3.89;100.00;103245.66;5025038;28;20045;-76
2024/01/31 03:21:26;;;;;;;4.80;1.50;;;;;;;3.88;100.00;103244.75;5003676;28;20041;-75
2024/01/31 03:23:54;;;;;;;5.55;1.40;;;;;;;3.87;100.00;103250.75;5034609;28;20037;-76
2024/01/31 03:26:21;;;;;;;8.70;1.42;;;;;;;3.87;100.00;103253.38;4999033;28;20447;-76
2024/01/31 03:28:48;;;;;;;6.18;2.08;;;;;;;3.87;100.00;103249.88;5044354;28;20033;-76
2024/01/31 03:31:16;;;;;;;4.32;1.98;;;;;;;3.86;100.00;103255.91;5014974;28;20053;-76
2024/01/31 03:33:43;;;;;;;5.97;1.20;;;;;;;3.86;100.00;103253.28;5018689;28;20517;-76
2024/01/31 03:36:11;;;;;;;7.18;1.30;;;;;;;3.87;100.00;103249.88;5023417;28;20036;-76
2024/01/31 03:38:39;;;;;;;6.30;1.00;;;;;;;3.86;100.00;103254.19;4977265;28;20051;-76
2024/01/31 03:41:07;;;;;;;4.00;1.35;;;;;;;3.86;100.00;103246.38;5032140;28;20047;-76
2024/01/31 03:43:35;;;;;;;2.47;0.93;;;;;;;3.86;100.00;103240.25;5033740;28;20388;-76
2024/01/31 03:46:06;;;;;;;7.70;1.38;;;;;;;3.85;100.00;103238.44;4999872;28;20049;-76
2024/01/31 03:48:34;;;;;;;6.30;1.40;;;;;;;3.84;100.00;103234.94;5013525;28;20076;-76
2024/01/31 03:51:01;;;;;;;5.28;1.40;;;;;;;3.84;100.00;103247.97;5038024;28;20048;-76
2024/01/31 03:53:29;;;;;;;5.25;1.40;;;;;;;3.82;100.00;103240.81;5002420;28;20486;-76
2024/01/31 03:55:56;;;;;;;3.42;1.08;;;;;;;3.81;100.00;103239.91;5029585;28;20045;-77
2024/01/31 03:58:24;;;;;;;7.55;1.50;;;;;;;3.82;100.00;103239.13;5021008;28;20041;-76
2024/01/31 04:00:51;;;;;;;3.40;1.30;;;;;;;3.84;100.00;103247.97;5025314;28;20049;-76
2024/01/31 04:03:20;;;;;;;7.10;1.30;;;;;;;3.85;100.00;103239.31;5014311;28;20053;-76
2024/01/31 04:05:48;;;;;;;6.90;1.20;;;;;;;3.85;100.00;103239.31;5043877;28;20049;-76
2024/01/31 04:08:16;;;;;;;7.18;1.75;;;;;;;3.85;100.00;103239.31;4983585;28;20501;-76
2024/01/31 04:10:44;;;;;;;3.58;1.27;;;;;;;3.86;100.00;103235.94;5016682;28;20049;-76
2024/01/31 04:13:11;;;;;;;4.35;1.70;;;;;;;3.87;100.00;103237.72;5012445;28;20447;-76
2024/01/31 04:15:39;;;;;;;4.20;1.20;;;;;;;3.87;100.00;103236.81;5017061;28;20033;-76
2024/01/31 04:18:07;;;;;;;7.63;2.38;;;;;;;3.88;100.00;103238.66;5022829;28;20045;-76
2024/01/31 04:20:38;;;;;;;6.65;1.30;;;;;;;3.89;100.00;103240.44;5024414;28;20045;-76
2024/01/31 04:23:06;;;;;;;6.18;2.08;;;;;;;3.88;100.00;103239.53;4988060;28;20048;-76
2024/01/31 04:25:34;;;;;;;7.40;2.78;;;;;;;3.89;100.00;103240.44;5016645;28;20041;-76
2024/01/31 04:28:01;;;;;;;2.70;1.25;;;;;;;3.89;100.00;103236.16;5017528;28;20049;-76
2024/01/31 04:30:29;;;;;;;7.72;1.58;;;;;;;3.89;100.00;103246.59;5023504;28;20498;-76
2024/01/31 04:33:00;;;;;;;8.55;2.47;;;;;;;3.88;100.00;103236.03;5024242;28;20054;-76
2024/01/31 04:35:28;;;;;;;9.55;1.67;;;;;;;3.87;100.00;103240.34;5002868;28;20053;-76
2024/01/31 04:37:56;;;;;;;8.00;1.50;;;;;;;3.88;100.00;103242.16;5004638;28;20056;-76
2024/01/31 04:40:23;;;;;;;10.82;2.33;;;;;;;3.87;100.00;103245.53;4982224;28;20034;-76
2024/01/31 04:42:50;;;;;;;9.38;1.90;;;;;;;3.87;100.00;103239.44;5014470;28;20054;-76
2024/01/31 04:45:20;;;;;;;6.47;1.40;;;;;;;3.86;100.00;103235.94;5011540;28;20403;-76
2024/01/31 04:47:48;;;;;;;7.32;1.95;;;;;;;3.84;100.00;103229.72;5012823;28;20049;-76
2024/01/31 04:50:15;;;;;;;7.95;1.42;;;;;;;3.82;100.00;103225.16;4983278;28;20049;-76
2024/01/31 04:52:44;;;;;;;6.95;1.58;;;;;;;3.80;100.00;103225.09;5007389;28;20049;-76
2024/01/31 04:55:13;;;;;;;6.75;1.50;;;;;;;3.78;100.00;103228.38;4978588;28;20045;-76
2024/01/31 04:57:41;;;;;;;13.82;2.10;;;;;;;3.76;100.00;103228.25;4996318;28;20076;-76
2024/01/31 05:00:15;;;;;;;8.50;1.70;;;;;;;3.71;100.00;103211.41;4992022;28;20041;-76
2024/01/31 05:02:43;;;;;;;7.82;2.05;;;;;;;3.66;100.00;103223.22;4975756;28;20048;-76
2024/01/31 05:05:10;;;;;;;4.15;1.27;;;;;;;3.59;100.00;103219.28;4993636;28;20799;-75
2024/01/31 05:07:38;;;;;;;8.15;1.50;;;;;;;3.53;100.00;103225.75;5014524;28;20030;-76
2024/01/31 05:10:06;;;;;;;10.07;1.83;;;;;;;3.44;100.00;103221.72;4980693;28;20049;-76
2024/01/31 05:12:33;;;;;;;5.75;1.10;;;;;;;3.38;100.00;103223.88;5015100;28;20506;-76
2024/01/31 05:15:01;;;;;;;13.25;2.28;;;;;;;3.32;100.00;103226.06;4999156;28;20061;-76
2024/01/31 05:17:28;;;;;;;3.97;1.60;;;;;;;3.25;100.00;103232.56;4994472;28;20038;-76
2024/01/31 05:19:56;;;;;;;3.90;1.50;;;;;;;3.19;100.00;103232.09;5020887;28;20049;-75
2024/01/31 05:22:23;;;;;;;7.53;1.50;;;;;;;3.12;100.00;103235.97;4966166;28;20045;-75
2024/01/31 05:24:50;;;;;;;12.98;3.08;;;;;;;3.09;100.00;103240.94;4965494;28;20064;-76
2024/01/31 05:27:18;;;;;;;6.22;1.10;;;;;;;3.05;100.00;103248.44;4997818;28;20509;-76
2024/01/31 05:29:45;;;;;;;3.83;1.35;;;;;;;2.98;100.00;103249.69;4971359;28;20049;-76
2024/01/31 05:32:13;;;;;;;7.00;1.85;;;;;;;2.94;100.00;103250.25;4996982;28;20129;-76
2024/01/31 05:34:44;;;;;;;3.92;1.13;;;;;;;2.92;100.00;103233.63;5012075;28;20064;-76
2024/01/31 05:37:12;;;;;;;4.63;1.70;;;;;;;2.90;100.00;103238.72;4989904;28;20037;-76
2024/01/31 05:39:39;;;;;;;5.20;1.40;;;;;;;2.88;100.00;103235.09;4966427;28;20513;-76
2024/01/31 05:42:06;;;;;;;11.25;1.77;;;;;;;2.89;100.00;103236.94;5013197;28;20053;-76
2024/01/31 05:44:34;;;;;;;4.72;1.65;;;;;;;2.90;100.00;103235.22;4991709;28;20426;-76
2024/01/31 05:47:01;;;;;;;5.93;1.27;;;;;;;2.90;100.00;103238.72;4994799;28;20041;-76
2024/01/31 05:49:29;;;;;;;9.65;1.38;;;;;;;2.90;100.00;103238.72;4994973;28;20045;-76
2024/01/31 05:51:56;;;;;;;3.85;1.35;;;;;;;2.89;100.00;103230.78;4998790;28;20054;-76
2024/01/31 05:54:23;;;;;;;6.60;1.70;;;;;;;2.87;100.00;103225.50;5014217;28;20605;-76
2024/01/31 05:56:51;;;;;;;5.38;2.05;;;;;;;2.87;100.00;103232.38;4963663;28;20049;-76
2024/01/31 05:59:25;;;;;;;3.85;1.48;;;;;;;2.86;100.00;103243.59;4989157;28;20045;-76
2024/01/31 06:01:52;;;;;;;5.30;1.20;;;;;;;2.86;100.00;103241.00;5006621;28;20140;-76
2024/01/31 06:04:20;;;;;;;9.15;2.92;;;;;;;2.88;100.00;103247.22;4985158;28;20046;-76
2024/01/31 06:06:47;;;;;;;6.22;1.60;;;;;;;2.90;100.00;103240.41;5013335;28;20041;-75
2024/01/31 06:09:15;;;;;;;3.45;1.10;;;;;;;2.91;100.00;103239.63;4998563;28;20038;-76
2024/01/31 06:11:42;;;;;;;2.35;1.30;;;;;;;2.91;100.00;103229.19;4948380;28;20045;-76
2024/01/31 06:14:09;;;;;;;8.65;2.00;;;;;;;2.93;100.00;103230.25;4993974;28;20052;-75
2024/01/31 06:16:37;;;;;;;6.63;1.80;;;;;;;2.93;100.00;103230.25;5003615;28;20045;-76
2024/01/31 06:19:04;;;;;;;5.55;1.48;;;;;;;2.96;100.00;103238.25;4994429;28;20053;-76
2024/01/31 06:21:32;;;;;;;6.13;1.40;;;;;;;2.97;100.00;103233.94;4992084;28;20410;-76
2024/01/31 06:23:59;;;;;;;8.10;1.35;;;;;;;2.98;100.00;103238.38;5012488;28;20483;-76
2024/01/31 06:26:28;;;;;;;4.70;1.75;;;;;;;3.02;100.00;103250.81;4948146;28;20510;-76
2024/01/31 06:28:55;;;;;;;7.00;1.23;;;;;;;3.03;100.00;103258.75;5005957;28;20054;-76
2024/01/31 06:31:28;;;;;;;5.07;1.40;;;;;;;3.03;100.00;103258.75;4995805;28;20053;-76
2024/01/31 06:33:55;;;;;;;5.50;1.25;;;;;;;3.04;100.00;103270.97;5012490;28;20061;-76
2024/01/31 06:36:23;;;;;;;7.03;1.48;;;;;;;3.05;100.00;103287.53;4994277;28;20824;-76
2024/01/31 06:38:51;;;;;;;3.03;1.00;;;;;;;3.06;100.00;103299.75;5005108;28;20055;-76
2024/01/31 06:41:18;;;;;;;8.00;1.80;;;;;;;3.07;100.00;103309.38;4985389;28;20727;-76
2024/01/31 06:43:46;;;;;;;9.82;1.40;;;;;;;3.09;100.00;103319.09;4954785;28;20076;-76
2024/01/31 06:46:16;;;;;;;8.57;1.67;;;;;;;3.12;100.00;103319.34;4990250;28;20513;-76
2024/01/31 06:48:43;;;;;;;5.15;1.48;;;;;;;3.16;100.00;103319.53;4986171;28;20787;-76
2024/01/31 06:51:11;;;;;;;3.75;1.40;;;;;;;3.18;100.00;103324.09;5006532;28;20037;-76
2024/01/31 06:53:38;;;;;;;3.63;1.40;;;;;;;3.21;100.00;103329.50;5024847;28;20079;-76
2024/01/31 06:56:06;;;;;;;8.43;2.17;;;;;;;3.23;100.00;103345.25;5000206;28;20033;-76
2024/01/31 06:58:34;;;;;;;5.75;1.50;;;;;;;3.23;100.00;103348.81;4972898;28;20049;-77
2024/01/31 07:01:04;;;;;;;7.15;1.20;;;;;;;3.26;100.00;103338.59;4998956;28;20068;-77
2024/01/31 07:03:31;;;;;;;5.15;1.48;;;;;;;3.27;100.00;103344.69;5020965;28;20045;-76
2024/01/31 07:05:59;;;;;;;8.45;1.40;;;;;;;3.28;100.00;103351.72;5006411;28;20639;-76
2024/01/31 07:08:26;;;;;;;5.57;1.58;;;;;;;3.30;100.00;103355.34;5016316;28;20044;-76
2024/01/31 07:10:53;;;;;;;7.20;1.20;;;;;;;3.31;100.00;103344.16;4980274;28;20724;-76
2024/01/31 07:13:21;;;;;;;8.93;1.77;;;;;;;3.32;100.00;103341.63;4948267;28;20053;-76
2024/01/31 07:15:48;;;;;;;6.00;1.20;;;;;;;3.35;100.00;103346.19;4974382;28;20589;-76
2024/01/31 07:18:16;;;;;;;9.88;1.80;;;;;;;3.37;100.00;103343.69;5004661;28;20041;-76
2024/01/31 07:20:44;;;;;;;7.80;1.60;;;;;;;3.37;100.00;103347.19;5010296;28;20045;-76
2024/01/31 07:23:11;;;;;;;5.65;1.27;;;;;;;3.38;100.00;103337.66;4990866;28;20056;-76
2024/01/31 07:25:39;;;;;;;3.83;1.02;;;;;;;3.40;100.00;103339.56;5001859;28;20049;-76
2024/01/31 07:28:07;;;;;;;5.93;1.90;;;;;;;3.42;100.00;103331.88;4946874;28;20053;-76
2024/01/31 07:30:35;;;;;;;9.02;2.17;;;;;;;3.42;100.00;103335.41;5004515;28;20060;-76
2024/01/31 07:33:02;;;;;;;4.90;1.52;;;;;;;3.44;100.00;103335.50;4988155;28;20057;-76
2024/01/31 07:35:29;;;;;;;10.20;2.17;;;;;;;3.46;100.00;103329.63;4992623;28;20114;-76
2024/01/31 07:37:57;;;;;;;13.05;3.05;;;;;;;3.47;100.00;103326.19;4984601;28;20045;-76
2024/01/31 07:40:24;;;;;;;9.52;3.50;;;;;;;3.51;100.00;103324.72;5011383;28;20087;-76
2024/01/31 07:42:51;;;;;;;6.82;2.90;;;;;;;3.53;100.00;103327.44;4976177;28;20069;-76
2024/01/31 07:45:19;;;;;;;11.07;3.08;;;;;;;3.54;100.00;103313.63;4976008;28;20413;-76
2024/01/31 07:47:46;;;;;;;9.85;1.88;;;;;;;3.57;100.00;103308.59;4989583;28;20064;-76
2024/01/31 07:50:14;;;;;;;6.40;2.08;;;;;;;3.59;100.00;103315.75;5006471;28;20046;-76
2024/01/31 07:52:41;;;;;;;8.15;3.22;;;;;;;3.61;100.00;103308.03;4990971;28;20053;-75
2024/01/31 07:55:10;;;;;;;7.38;1.65;;;;;;;3.63;100.00;103298.59;4986262;28;20062;-76
2024/01/31 07:57:38;;;;;;;5.82;1.80;;;;;;;3.64;100.00;103292.59;4994751;28;20422;-76
2024/01/31 08:00:06;;;;;;;7.93;1.77;;;;;;;3.66;100.00;103285.78;4975492;28;20064;-75
2024/01/31 08:02:33;;;;;;;6.95;1.58;;;;;;;3.68;100.00;103286.81;5001649;28;20073;-76
2024/01/31 08:05:01;;;;;;;5.53;1.58;;;;;;;3.69;100.00;103296.44;4970185;28;20061;-77
2024/01/31 08:07:28;;;;;;;6.32;1.70;;;;;;;3.70;100.00;103288.75;5021242;28;20045;-78
2024/01/31 08:09:56;;;;;;;7.50;1.48;;;;;;;3.73;100.00;103294.97;4968737;28;20052;-77
2024/01/31 08:12:23;;;;;;;5.80;1.33;;;;;;;3.74;100.00;103297.66;5023881;28;20053;-75
2024/01/31 08:14:51;;;;;;;11.05;2.40;;;;;;;3.75;100.00;103288.16;4963354;28;20053;-74
2024/01/31 08:17:18;;;;;;;10.07;1.60;;;;;;;3.76;100.00;103285.63;4988488;28;20050;-74
2024/01/31 08:19:45;;;;;;;8.05;2.10;;;;;;;3.79;100.00;103290.19;4989827;28;20068;-77
2024/01/31 08:22:13;;;;;;;8.73;2.03;;;;;;;3.81;100.00;103281.66;4986138;28;20521;-77
2024/01/31 08:24:40;;;;;;;9.25;1.67;;;;;;;3.85;100.00;103288.00;4984488;28;20068;-77
2024/01/31 08:27:07;;;;;;;3.97;1.25;;;;;;;3.86;100.00;103275.06;5018862;28;20554;-77
2024/01/31 08:29:35;;;;;;;6.15;1.80;;;;;;;3.89;100.00;103279.56;4969602;28;20053;-77
2024/01/31 08:32:02;;;;;;;9.00;1.83;;;;;;;3.92;100.00;103284.13;4998436;28;20049;-77
2024/01/31 08:34:30;;;;;;;6.93;1.77;;;;;;;3.94;100.00;103292.94;5002172;28;20049;-77
2024/01/31 08:36:59;;;;;;;5.63;1.40;;;;;;;3.97;100.00;103290.53;4974814;28;20053;-76
2024/01/31 08:39:29;;;;;;;5.13;1.80;;;;;;;4.00;100.00;103290.75;4988724;28;20060;-77
2024/01/31 08:41:57;;;;;;;5.65;2.05;;;;;;;4.03;100.00;103290.97;5012224;28;20053;-77
2024/01/31 08:44:24;;;;;;;8.38;2.15;;;;;;;4.05;100.00;103292.00;4997017;28;20053;-76
2024/01/31 08:46:52;;;;;;;6.40;1.98;;;;;;;4.08;100.00;103277.47;4974786;28;20466;-76
2024/01/31 08:49:40;;;;;;;7.93;2.03;;;;;;;4.15;100.00;103288.31;5001483;28;20037;-77
2024/01/31 08:52:07;;;;;;;4.25;1.83;;;;;;;4.16;100.00;103291.03;5002012;28;20060;-76
2024/01/31 08:54:35;;;;;;;6.82;1.98;;;;;;;4.19;100.00;103287.72;5015887;28;20050;-76
2024/01/31 08:57:02;;;;;;;5.22;1.80;;;;;;;4.21;100.00;103297.44;4993019;28;20424;-76
2024/01/31 08:59:30;;;;;;;3.90;1.55;;;;;;;4.24;100.00;103291.53;5013594;28;20526;-77
2024/01/31 09:01:57;;;;;;;5.90;1.95;;;;;;;4.24;100.00;103283.72;4950441;28;20064;-77
2024/01/31 09:04:25;;;;;;;3.97;2.10;;;;;;;4.27;100.00;103279.63;5007443;28;20129;-76
2024/01/31 09:06:52;;;;;;;5.25;2.10;;;;;;;4.30;100.00;103282.41;4982112;28;20049;-76
2024/01/31 09:09:20;;;;;;;5.07;2.15;;;;;;;4.36;100.00;103275.81;5029156;28;20045;-77
2024/01/31 09:11:48;;;;;;;6.22;2.03;;;;;;;4.40;100.00;103256.94;5000083;28;20046;-77
2024/01/31 09:14:15;;;;;;;5.25;1.90;;;;;;;4.43;100.00;103252.81;4999364;28;20049;-76
2024/01/31 09:16:42;;;;;;;6.35;1.92;;;;;;;4.48;100.00;103246.22;4957891;28;20418;-77
2024/01/31 09:19:10;;;;;;;3.75;2.00;;;;;;;4.53;100.00;103236.06;4991599;28;20124;-76
2024/01/31 09:21:38;;;;;;;5.50;2.53;;;;;;;4.58;100.00;103239.88;5000146;28;20053;-76
2024/01/31 09:24:06;;;;;;;4.65;1.70;;;;;;;4.62;100.00;103249.72;5009280;28;20066;-76
2024/01/31 09:26:33;;;;;;;7.07;2.38;;;;;;;4.68;100.00;103249.22;5014667;28;20042;-77
2024/01/31 09:29:02;;;;;;;4.38;2.10;;;;;;;4.73;100.00;103239.09;5014939;28;20053;-76
2024/01/31 09:31:29;;;;;;;4.78;2.58;;;;;;;4.80;100.00;103230.81;4986170;28;20052;-76
2024/01/31 09:33:57;;;;;;;4.72;2.50;;;;;;;4.84;100.00;103225.91;4953420;28;20057;-76
2024/01/31 09:36:25;;;;;;;3.45;2.58;;;;;;;4.89;100.00;103231.44;5025954;28;20045;-77
2024/01/31 09:38:53;;;;;;;8.43;2.30;;;;;;;4.94;100.00;103230.03;4987908;28;20045;-76
2024/01/31 09:41:20;;;;;;;6.43;2.47;;;;;;;4.95;100.00;103236.13;5015780;28;20045;-76
2024/01/31 09:43:48;;;;;;;6.43;3.05;;;;;;;4.97;100.00;103225.00;4994413;28;20057;-77
2024/01/31 09:46:15;;;;;;;4.35;2.90;;;;;;;5.01;100.00;103224.38;5000327;28;20045;-76
2024/01/31 09:48:43;;;;;;;5.22;2.85;;;;;;;5.05;100.00;103228.09;4964225;28;20064;-77
2024/01/31 09:51:12;;;;;;;4.53;2.90;;;;;;;5.04;100.00;103224.56;4986048;28;20041;-76
2024/01/31 09:53:44;;;;;;;4.65;3.10;;;;;;;5.05;100.00;103229.00;4982201;28;20509;-76
2024/01/31 09:56:12;;;;;;;5.68;4.18;;;;;;;5.04;100.00;103235.00;5007454;28;20053;-76
2024/01/31 09:58:39;;;;;;;8.02;3.88;;;;;;;5.03;100.00;103234.94;4988487;28;20503;-76
2024/01/31 10:01:08;;;;;;;5.88;3.72;;;;;;;5.00;100.00;103232.13;4997340;28;20037;-76
2024/01/31 10:03:47;;;;;;;6.75;3.40;;;;;;;4.98;100.00;103237.25;4978122;28;20049;-76
2024/01/31 10:06:15;;;;;;;6.75;3.78;;;;;;;4.97;100.00;103232.84;4997175;28;20053;-77
2024/01/31 10:08:42;;;;;;;5.32;3.97;;;;;;;4.97;100.00;103245.91;5005027;28;20064;-76
2024/01/31 10:11:09;;;;;;;9.73;4.10;;;;;;;4.96;100.00;103231.03;5014800;28;20533;-76
2024/01/31 10:13:38;;;;;;;4.85;3.80;;;;;;;4.95;100.00;103237.03;5013094;28;20038;-76
2024/01/31 10:16:06;;;;;;;7.78;4.20;;;;;;;4.93;100.00;103238.66;4996249;28;20046;-76
2024/01/31 10:18:34;;;;;;;7.53;4.85;;;;;;;4.90;100.00;103243.69;4994864;28;20402;-75
2024/01/31 10:21:02;;;;;;;8.05;5.10;;;;;;;4.86;100.00;103253.03;4975627;28;20622;-76
2024/01/31 10:23:29;;;;;;;6.25;4.88;;;;;;;4.87;100.00;103247.00;5024224;28;20045;-76
2024/01/31 10:25:57;;;;;;;6.18;5.57;;;;;;;4.88;100.00;103251.44;5001973;28;20053;-76
2024/01/31 10:28:25;;;;;;;6.20;5.47;;;;;;;4.92;100.00;103242.09;4995849;28;20041;-76
2024/01/31 10:30:53;;;;;;;7.00;6.07;;;;;;;4.97;100.00;103244.97;4993557;28;20056;-77
2024/01/31 10:33:21;;;;;;;10.05;6.47;;;;;;;5.01;100.00;103237.47;4983040;28;20041;-76
2024/01/31 10:35:49;;;;;;;6.53;5.82;;;;;;;5.03;100.00;103216.66;4944437;28;20801;-76
2024/01/31 10:38:39;;;;;;;7.38;6.45;;;;;;;5.05;100.00;103210.72;5018078;28;20076;-77
2024/01/31 10:41:10;;;;;;;12.98;7.18;;;;;;;5.08;100.00;103215.22;4996283;28;20057;-76
2024/01/31 10:43:40;;;;;;;6.80;5.93;;;;;;;5.10;100.00;103210.97;4998472;28;20422;-76
2024/01/31 10:46:07;;;;;;;9.67;6.53;;;;;;;5.13;100.00;103205.06;5011614;28;20108;-76
2024/01/31 10:48:35;;;;;;;7.28;6.43;;;;;;;5.17;100.00;103200.13;5011841;28;20681;-76
2024/01/31 10:51:04;;;;;;;9.52;6.80;;;;;;;5.23;100.00;103191.75;4953870;28;21226;-76
2024/01/31 10:53:33;;;;;;;7.65;6.50;;;;;;;5.26;100.00;103184.13;5010951;28;20080;-76
2024/01/31 10:56:03;;;;;;;8.65;6.85;;;;;;;5.28;100.00;103187.72;4992519;28;24434;-76
2024/01/31 10:58:31;;;;;;;7.03;6.32;;;;;;;5.32;100.00;103184.50;4987783;28;20939;-76
2024/01/31 11:01:02;;;;;;;8.48;6.47;;;;;;;5.36;100.00;103170.78;4994816;28;20033;-76
2024/01/31 11:03:30;;;;;;;7.85;6.70;;;;;;;5.39;100.00;103160.53;4987560;28;20045;-76
2024/01/31 11:05:58;;;;;;;10.77;7.03;;;;;;;5.42;100.00;103155.47;4991143;28;20497;-76
2024/01/31 11:08:27;;;;;;;8.32;6.85;;;;;;;5.47;100.00;103143.59;4956966;28;20050;-76
2024/01/31 11:10:55;;;;;;;7.88;6.55;;;;;;;5.51;100.00;103131.59;4998692;28;20053;-76
2024/01/31 11:13:22;;;;;;;10.40;7.25;;;;;;;5.56;100.00;103126.66;5012307;28;20052;-75
2024/01/31 11:15:49;;;;;;;7.30;6.03;;;;;;;5.60;100.00;103111.25;4991025;28;20130;-76
2024/01/31 11:18:17;;;;;;;8.82;6.68;;;;;;;5.63;100.00;103105.28;4974532;28;20065;-76
2024/01/31 11:20:47;;;;;;;7.60;6.30;;;;;;;5.65;100.00;103101.03;4995858;28;20041;-75
2024/01/31 11:23:15;;;;;;;6.57;5.97;;;;;;;5.69;100.00;103095.19;4940317;28;20075;-76
2024/01/31 11:25:44;;;;;;;7.20;6.50;;;;;;;5.73;100.00;103078.88;5033930;28;20053;-78
2024/01/31 11:28:13;;;;;;;6.82;5.72;;;;;;;5.76;100.00;103076.41;5016231;28;20041;-76